sensor_id;sensor_type;location;lat;lon;timestamp;P1;durP1;ratioP1;P2;durP2;ratioP2
46006;SDS011;31738;50.188;8.524;2023-11-19T00:00:54;23.38;;;9.65;;
46006;SDS011;31738;50.188;8.524;2023-11-19T00:03:19;24.98;;;9.20;;
46006;SDS011;31738;50.188;8.524;2023-11-19T00:05:45;24.85;;;8.55;;
46006;SDS011;31738;50.188;8.524;2023-11-19T00:08:11;29.17;;;9.98;;
46006;SDS011;31738;50.188;8.524;2023-11-19T00:10:36;27.63;;;9.43;;
46006;SDS011;31738;50.188;8.524;2023-11-19T00:13:02;25.50;;;8.60;;
46006;SDS011;31738;50.188;8.524;2023-11-19T00:15:30;22.85;;;8.90;;
46006;SDS011;31738;50.188;8.524;2023-11-19T00:17:55;25.80;;;9.90;;
46006;SDS011;31738;50.188;8.524;2023-11-19T00:20:21;20.38;;;9.13;;
46006;SDS011;31738;50.188;8.524;2023-11-19T00:22:49;23.00;;;9.48;;
46006;SDS011;31738;50.188;8.524;2023-11-19T00:25:18;24.95;;;9.50;;
46006;SDS011;31738;50.188;8.524;2023-11-19T00:27:44;25.48;;;9.32;;
46006;SDS011;31738;50.188;8.524;2023-11-19T00:30:10;20.50;;;8.38;;
46006;SDS011;31738;50.188;8.524;2023-11-19T00:32:36;23.70;;;8.63;;
46006;SDS011;31738;50.188;8.524;2023-11-19T00:35:03;26.83;;;9.93;;
46006;SDS011;31738;50.188;8.524;2023-11-19T00:37:30;24.35;;;9.02;;
46006;SDS011;31738;50.188;8.524;2023-11-19T00:39:55;26.42;;;9.70;;
46006;SDS011;31738;50.188;8.524;2023-11-19T00:42:21;23.08;;;9.10;;
46006;SDS011;31738;50.188;8.524;2023-11-19T00:44:48;26.17;;;9.43;;
46006;SDS011;31738;50.188;8.524;2023-11-19T00:47:13;30.00;;;9.57;;
46006;SDS011;31738;50.188;8.524;2023-11-19T00:49:39;25.33;;;9.73;;
46006;SDS011;31738;50.188;8.524;2023-11-19T00:52:05;32.63;;;9.20;;
46006;SDS011;31738;50.188;8.524;2023-11-19T00:54:32;29.15;;;9.95;;
46006;SDS011;31738;50.188;8.524;2023-11-19T00:56:57;26.45;;;9.48;;
46006;SDS011;31738;50.188;8.524;2023-11-19T00:59:23;38.05;;;9.90;;
46006;SDS011;31738;50.188;8.524;2023-11-19T01:01:48;39.25;;;9.55;;
46006;SDS011;31738;50.188;8.524;2023-11-19T01:04:14;27.73;;;9.70;;
46006;SDS011;31738;50.188;8.524;2023-11-19T01:06:40;37.22;;;9.45;;
46006;SDS011;31738;50.188;8.524;2023-11-19T01:09:07;80.32;;;10.35;;
46006;SDS011;31738;50.188;8.524;2023-11-19T01:11:33;45.08;;;9.32;;
46006;SDS011;31738;50.188;8.524;2023-11-19T01:14:00;70.13;;;9.10;;
46006;SDS011;31738;50.188;8.524;2023-11-19T01:16:25;100.45;;;9.18;;
46006;SDS011;31738;50.188;8.524;2023-11-19T01:18:51;42.35;;;8.63;;
46006;SDS011;31738;50.188;8.524;2023-11-19T01:21:17;23.60;;;8.93;;
46006;SDS011;31738;50.188;8.524;2023-11-19T01:23:43;43.10;;;8.93;;
46006;SDS011;31738;50.188;8.524;2023-11-19T01:26:09;31.88;;;8.80;;
46006;SDS011;31738;50.188;8.524;2023-11-19T01:28:35;28.60;;;9.15;;
46006;SDS011;31738;50.188;8.524;2023-11-19T01:31:01;25.83;;;8.88;;
46006;SDS011;31738;50.188;8.524;2023-11-19T01:33:29;24.13;;;8.88;;
46006;SDS011;31738;50.188;8.524;2023-11-19T01:35:55;25.00;;;8.50;;
46006;SDS011;31738;50.188;8.524;2023-11-19T01:38:21;25.27;;;8.80;;
46006;SDS011;31738;50.188;8.524;2023-11-19T01:40:46;23.55;;;8.48;;
46006;SDS011;31738;50.188;8.524;2023-11-19T01:43:12;24.23;;;9.07;;
46006;SDS011;31738;50.188;8.524;2023-11-19T01:45:39;29.27;;;9.10;;
46006;SDS011;31738;50.188;8.524;2023-11-19T01:48:05;56.42;;;9.73;;
46006;SDS011;31738;50.188;8.524;2023-11-19T01:50:30;42.78;;;9.90;;
46006;SDS011;31738;50.188;8.524;2023-11-19T01:52:57;44.50;;;9.73;;
46006;SDS011;31738;50.188;8.524;2023-11-19T01:55:23;46.88;;;9.48;;
46006;SDS011;31738;50.188;8.524;2023-11-19T01:57:50;27.58;;;9.60;;
46006;SDS011;31738;50.188;8.524;2023-11-19T02:00:18;23.17;;;8.48;;
46006;SDS011;31738;50.188;8.524;2023-11-19T02:02:45;24.55;;;8.80;;
46006;SDS011;31738;50.188;8.524;2023-11-19T02:05:12;26.17;;;9.77;;
46006;SDS011;31738;50.188;8.524;2023-11-19T02:07:38;24.02;;;8.27;;
46006;SDS011;31738;50.188;8.524;2023-11-19T02:10:04;19.88;;;8.02;;
46006;SDS011;31738;50.188;8.524;2023-11-19T02:12:31;25.65;;;9.10;;
46006;SDS011;31738;50.188;8.524;2023-11-19T02:15:01;24.92;;;8.50;;
46006;SDS011;31738;50.188;8.524;2023-11-19T02:17:31;20.75;;;9.07;;
46006;SDS011;31738;50.188;8.524;2023-11-19T02:19:57;23.35;;;8.90;;
46006;SDS011;31738;50.188;8.524;2023-11-19T02:22:32;26.80;;;9.43;;
46006;SDS011;31738;50.188;8.524;2023-11-19T02:25:03;22.45;;;7.82;;
46006;SDS011;31738;50.188;8.524;2023-11-19T02:30:07;23.15;;;8.98;;
46006;SDS011;31738;50.188;8.524;2023-11-19T02:32:34;23.33;;;8.05;;
46006;SDS011;31738;50.188;8.524;2023-11-19T02:35:01;23.00;;;8.45;;
46006;SDS011;31738;50.188;8.524;2023-11-19T02:37:26;26.30;;;8.93;;
46006;SDS011;31738;50.188;8.524;2023-11-19T02:39:53;22.80;;;8.98;;
46006;SDS011;31738;50.188;8.524;2023-11-19T02:42:19;21.60;;;7.35;;
46006;SDS011;31738;50.188;8.524;2023-11-19T02:44:45;24.10;;;8.48;;
46006;SDS011;31738;50.188;8.524;2023-11-19T02:47:11;21.02;;;8.15;;
46006;SDS011;31738;50.188;8.524;2023-11-19T02:49:36;17.90;;;7.28;;
46006;SDS011;31738;50.188;8.524;2023-11-19T02:52:02;19.65;;;7.43;;
46006;SDS011;31738;50.188;8.524;2023-11-19T02:54:43;25.88;;;8.27;;
46006;SDS011;31738;50.188;8.524;2023-11-19T02:57:08;21.52;;;8.23;;
46006;SDS011;31738;50.188;8.524;2023-11-19T02:59:38;23.02;;;8.50;;
46006;SDS011;31738;50.188;8.524;2023-11-19T03:02:06;22.60;;;8.27;;
46006;SDS011;31738;50.188;8.524;2023-11-19T03:04:37;26.95;;;8.85;;
46006;SDS011;31738;50.188;8.524;2023-11-19T03:07:06;23.92;;;8.05;;
46006;SDS011;31738;50.188;8.524;2023-11-19T03:09:35;24.45;;;8.10;;
46006;SDS011;31738;50.188;8.524;2023-11-19T03:12:01;24.02;;;8.82;;
46006;SDS011;31738;50.188;8.524;2023-11-19T03:14:27;32.67;;;8.90;;
46006;SDS011;31738;50.188;8.524;2023-11-19T03:16:52;43.50;;;9.30;;
46006;SDS011;31738;50.188;8.524;2023-11-19T03:19:18;24.98;;;8.35;;
46006;SDS011;31738;50.188;8.524;2023-11-19T03:21:44;27.48;;;9.25;;
46006;SDS011;31738;50.188;8.524;2023-11-19T03:24:10;21.23;;;7.88;;
46006;SDS011;31738;50.188;8.524;2023-11-19T03:26:37;22.17;;;8.30;;
46006;SDS011;31738;50.188;8.524;2023-11-19T03:29:03;22.90;;;7.30;;
46006;SDS011;31738;50.188;8.524;2023-11-19T03:31:28;19.83;;;7.38;;
46006;SDS011;31738;50.188;8.524;2023-11-19T03:33:54;22.92;;;8.15;;
46006;SDS011;31738;50.188;8.524;2023-11-19T03:36:20;17.40;;;7.13;;
46006;SDS011;31738;50.188;8.524;2023-11-19T03:38:45;17.27;;;6.72;;
46006;SDS011;31738;50.188;8.524;2023-11-19T03:41:12;19.05;;;7.07;;
46006;SDS011;31738;50.188;8.524;2023-11-19T03:43:38;15.70;;;6.70;;
46006;SDS011;31738;50.188;8.524;2023-11-19T03:46:05;14.98;;;6.28;;
46006;SDS011;31738;50.188;8.524;2023-11-19T03:48:40;18.17;;;7.20;;
46006;SDS011;31738;50.188;8.524;2023-11-19T03:51:06;19.67;;;6.75;;
46006;SDS011;31738;50.188;8.524;2023-11-19T03:53:31;19.73;;;6.88;;
46006;SDS011;31738;50.188;8.524;2023-11-19T03:55:57;20.70;;;6.57;;
46006;SDS011;31738;50.188;8.524;2023-11-19T03:58:22;17.10;;;6.68;;
46006;SDS011;31738;50.188;8.524;2023-11-19T04:00:47;16.58;;;6.55;;
46006;SDS011;31738;50.188;8.524;2023-11-19T04:03:13;14.68;;;6.28;;
46006;SDS011;31738;50.188;8.524;2023-11-19T04:05:38;19.67;;;7.15;;
46006;SDS011;31738;50.188;8.524;2023-11-19T04:08:04;16.90;;;5.70;;
46006;SDS011;31738;50.188;8.524;2023-11-19T04:10:30;18.17;;;6.43;;
46006;SDS011;31738;50.188;8.524;2023-11-19T04:12:56;17.38;;;6.25;;
46006;SDS011;31738;50.188;8.524;2023-11-19T04:15:21;22.30;;;6.93;;
46006;SDS011;31738;50.188;8.524;2023-11-19T04:17:47;21.05;;;6.68;;
46006;SDS011;31738;50.188;8.524;2023-11-19T04:20:12;17.67;;;6.70;;
46006;SDS011;31738;50.188;8.524;2023-11-19T04:22:39;16.25;;;6.40;;
46006;SDS011;31738;50.188;8.524;2023-11-19T04:25:04;23.63;;;7.57;;
46006;SDS011;31738;50.188;8.524;2023-11-19T04:27:30;22.95;;;7.68;;
46006;SDS011;31738;50.188;8.524;2023-11-19T04:29:56;17.08;;;7.05;;
46006;SDS011;31738;50.188;8.524;2023-11-19T04:32:21;22.52;;;7.53;;
46006;SDS011;31738;50.188;8.524;2023-11-19T04:34:48;44.60;;;7.75;;
46006;SDS011;31738;50.188;8.524;2023-11-19T04:37:13;23.88;;;7.35;;
46006;SDS011;31738;50.188;8.524;2023-11-19T04:39:39;20.45;;;7.45;;
46006;SDS011;31738;50.188;8.524;2023-11-19T04:42:04;34.17;;;7.68;;
46006;SDS011;31738;50.188;8.524;2023-11-19T04:44:31;22.25;;;8.55;;
46006;SDS011;31738;50.188;8.524;2023-11-19T04:46:57;22.52;;;7.53;;
46006;SDS011;31738;50.188;8.524;2023-11-19T04:49:22;23.83;;;7.97;;
46006;SDS011;31738;50.188;8.524;2023-11-19T04:51:48;23.55;;;8.18;;
46006;SDS011;31738;50.188;8.524;2023-11-19T04:54:13;21.17;;;6.90;;
46006;SDS011;31738;50.188;8.524;2023-11-19T04:56:39;23.75;;;7.70;;
46006;SDS011;31738;50.188;8.524;2023-11-19T04:59:05;23.30;;;7.00;;
46006;SDS011;31738;50.188;8.524;2023-11-19T05:01:31;18.55;;;6.50;;
46006;SDS011;31738;50.188;8.524;2023-11-19T05:03:58;17.58;;;6.22;;
46006;SDS011;31738;50.188;8.524;2023-11-19T05:06:26;19.65;;;6.68;;
46006;SDS011;31738;50.188;8.524;2023-11-19T05:08:52;19.45;;;6.57;;
46006;SDS011;31738;50.188;8.524;2023-11-19T05:11:19;18.63;;;6.30;;
46006;SDS011;31738;50.188;8.524;2023-11-19T05:13:45;18.75;;;6.32;;
46006;SDS011;31738;50.188;8.524;2023-11-19T05:16:10;17.13;;;6.50;;
46006;SDS011;31738;50.188;8.524;2023-11-19T05:18:39;16.08;;;5.32;;
46006;SDS011;31738;50.188;8.524;2023-11-19T05:21:05;18.73;;;5.60;;
46006;SDS011;31738;50.188;8.524;2023-11-19T05:23:32;11.93;;;4.32;;
46006;SDS011;31738;50.188;8.524;2023-11-19T05:25:59;12.27;;;4.18;;
46006;SDS011;31738;50.188;8.524;2023-11-19T05:28:26;8.18;;;3.65;;
46006;SDS011;31738;50.188;8.524;2023-11-19T05:30:51;9.57;;;3.70;;
46006;SDS011;31738;50.188;8.524;2023-11-19T05:33:16;9.10;;;3.58;;
46006;SDS011;31738;50.188;8.524;2023-11-19T05:35:42;8.85;;;3.42;;
46006;SDS011;31738;50.188;8.524;2023-11-19T05:38:07;11.18;;;3.65;;
46006;SDS011;31738;50.188;8.524;2023-11-19T05:40:34;6.75;;;3.00;;
46006;SDS011;31738;50.188;8.524;2023-11-19T05:43:00;10.75;;;2.90;;
46006;SDS011;31738;50.188;8.524;2023-11-19T05:45:25;6.72;;;3.15;;
46006;SDS011;31738;50.188;8.524;2023-11-19T05:47:51;9.40;;;3.20;;
46006;SDS011;31738;50.188;8.524;2023-11-19T05:50:17;6.05;;;2.53;;
46006;SDS011;31738;50.188;8.524;2023-11-19T05:52:43;8.35;;;3.00;;
46006;SDS011;31738;50.188;8.524;2023-11-19T05:55:09;10.68;;;3.22;;
46006;SDS011;31738;50.188;8.524;2023-11-19T05:57:36;7.72;;;3.45;;
46006;SDS011;31738;50.188;8.524;2023-11-19T06:00:02;10.57;;;3.53;;
46006;SDS011;31738;50.188;8.524;2023-11-19T06:02:36;8.35;;;3.33;;
46006;SDS011;31738;50.188;8.524;2023-11-19T06:05:03;9.48;;;3.47;;
46006;SDS011;31738;50.188;8.524;2023-11-19T06:07:31;8.50;;;3.47;;
46006;SDS011;31738;50.188;8.524;2023-11-19T06:09:56;9.90;;;4.00;;
46006;SDS011;31738;50.188;8.524;2023-11-19T06:12:22;11.40;;;3.58;;
46006;SDS011;31738;50.188;8.524;2023-11-19T06:14:47;16.13;;;4.55;;
46006;SDS011;31738;50.188;8.524;2023-11-19T06:17:13;14.15;;;4.30;;
46006;SDS011;31738;50.188;8.524;2023-11-19T06:19:38;13.02;;;4.78;;
46006;SDS011;31738;50.188;8.524;2023-11-19T06:22:04;17.73;;;4.90;;
46006;SDS011;31738;50.188;8.524;2023-11-19T06:24:29;11.82;;;4.32;;
46006;SDS011;31738;50.188;8.524;2023-11-19T06:26:55;13.73;;;4.30;;
46006;SDS011;31738;50.188;8.524;2023-11-19T06:29:20;15.07;;;4.47;;
46006;SDS011;31738;50.188;8.524;2023-11-19T06:31:46;14.57;;;4.05;;
46006;SDS011;31738;50.188;8.524;2023-11-19T06:34:15;15.63;;;4.28;;
46006;SDS011;31738;50.188;8.524;2023-11-19T06:36:40;10.80;;;3.58;;
46006;SDS011;31738;50.188;8.524;2023-11-19T06:39:08;12.73;;;4.28;;
46006;SDS011;31738;50.188;8.524;2023-11-19T06:41:34;15.02;;;4.60;;
46006;SDS011;31738;50.188;8.524;2023-11-19T06:43:59;12.93;;;3.95;;
46006;SDS011;31738;50.188;8.524;2023-11-19T06:46:25;15.23;;;4.15;;
46006;SDS011;31738;50.188;8.524;2023-11-19T06:48:50;13.48;;;3.95;;
46006;SDS011;31738;50.188;8.524;2023-11-19T06:51:16;11.75;;;3.60;;
46006;SDS011;31738;50.188;8.524;2023-11-19T06:53:45;11.90;;;3.80;;
46006;SDS011;31738;50.188;8.524;2023-11-19T06:56:23;11.93;;;4.32;;
46006;SDS011;31738;50.188;8.524;2023-11-19T06:58:49;17.17;;;4.88;;
46006;SDS011;31738;50.188;8.524;2023-11-19T07:01:18;11.45;;;3.95;;
46006;SDS011;31738;50.188;8.524;2023-11-19T07:03:45;12.85;;;4.20;;
46006;SDS011;31738;50.188;8.524;2023-11-19T07:06:11;15.15;;;4.13;;
46006;SDS011;31738;50.188;8.524;2023-11-19T07:08:38;15.43;;;4.45;;
46006;SDS011;31738;50.188;8.524;2023-11-19T07:11:04;15.98;;;4.60;;
46006;SDS011;31738;50.188;8.524;2023-11-19T07:13:30;19.70;;;4.97;;
46006;SDS011;31738;50.188;8.524;2023-11-19T07:15:55;10.88;;;3.95;;
46006;SDS011;31738;50.188;8.524;2023-11-19T07:18:21;14.07;;;5.00;;
46006;SDS011;31738;50.188;8.524;2023-11-19T07:20:49;18.67;;;4.60;;
46006;SDS011;31738;50.188;8.524;2023-11-19T07:23:15;14.85;;;4.53;;
46006;SDS011;31738;50.188;8.524;2023-11-19T07:25:44;14.35;;;4.22;;
46006;SDS011;31738;50.188;8.524;2023-11-19T07:28:12;16.60;;;4.43;;
46006;SDS011;31738;50.188;8.524;2023-11-19T07:30:38;16.73;;;4.43;;
46006;SDS011;31738;50.188;8.524;2023-11-19T07:33:04;12.50;;;3.92;;
46006;SDS011;31738;50.188;8.524;2023-11-19T07:35:29;14.85;;;4.15;;
46006;SDS011;31738;50.188;8.524;2023-11-19T07:37:56;12.68;;;3.75;;
46006;SDS011;31738;50.188;8.524;2023-11-19T07:40:23;13.15;;;4.15;;
46006;SDS011;31738;50.188;8.524;2023-11-19T07:42:49;10.07;;;3.85;;
46006;SDS011;31738;50.188;8.524;2023-11-19T07:45:14;12.90;;;3.67;;
46006;SDS011;31738;50.188;8.524;2023-11-19T07:47:40;11.45;;;3.65;;
46006;SDS011;31738;50.188;8.524;2023-11-19T07:50:05;10.75;;;3.53;;
46006;SDS011;31738;50.188;8.524;2023-11-19T07:52:31;11.68;;;3.30;;
46006;SDS011;31738;50.188;8.524;2023-11-19T07:54:57;8.40;;;2.88;;
46006;SDS011;31738;50.188;8.524;2023-11-19T07:57:22;10.88;;;3.45;;
46006;SDS011;31738;50.188;8.524;2023-11-19T07:59:49;11.07;;;3.38;;
46006;SDS011;31738;50.188;8.524;2023-11-19T08:02:15;10.70;;;3.00;;
46006;SDS011;31738;50.188;8.524;2023-11-19T08:04:40;10.70;;;3.35;;
46006;SDS011;31738;50.188;8.524;2023-11-19T08:07:10;12.32;;;3.42;;
46006;SDS011;31738;50.188;8.524;2023-11-19T08:09:36;12.00;;;3.13;;
46006;SDS011;31738;50.188;8.524;2023-11-19T08:12:02;8.35;;;3.00;;
46006;SDS011;31738;50.188;8.524;2023-11-19T08:14:28;12.50;;;3.25;;
46006;SDS011;31738;50.188;8.524;2023-11-19T08:16:56;10.95;;;3.17;;
46006;SDS011;31738;50.188;8.524;2023-11-19T08:19:22;9.82;;;3.38;;
46006;SDS011;31738;50.188;8.524;2023-11-19T08:21:47;8.30;;;3.10;;
46006;SDS011;31738;50.188;8.524;2023-11-19T08:24:13;7.85;;;3.30;;
46006;SDS011;31738;50.188;8.524;2023-11-19T08:26:38;12.20;;;3.30;;
46006;SDS011;31738;50.188;8.524;2023-11-19T08:29:04;10.05;;;3.17;;
46006;SDS011;31738;50.188;8.524;2023-11-19T08:31:29;9.00;;;3.40;;
46006;SDS011;31738;50.188;8.524;2023-11-19T08:33:55;10.02;;;3.08;;
46006;SDS011;31738;50.188;8.524;2023-11-19T08:36:20;12.00;;;3.58;;
46006;SDS011;31738;50.188;8.524;2023-11-19T08:38:46;10.50;;;4.18;;
46006;SDS011;31738;50.188;8.524;2023-11-19T08:41:11;14.68;;;4.18;;
46006;SDS011;31738;50.188;8.524;2023-11-19T08:43:37;7.90;;;3.83;;
46006;SDS011;31738;50.188;8.524;2023-11-19T08:46:03;11.77;;;4.15;;
46006;SDS011;31738;50.188;8.524;2023-11-19T08:48:29;8.10;;;3.85;;
46006;SDS011;31738;50.188;8.524;2023-11-19T08:50:54;7.18;;;3.40;;
46006;SDS011;31738;50.188;8.524;2023-11-19T08:53:20;8.68;;;3.00;;
46006;SDS011;31738;50.188;8.524;2023-11-19T08:55:46;9.27;;;3.45;;
46006;SDS011;31738;50.188;8.524;2023-11-19T08:58:11;11.40;;;3.72;;
46006;SDS011;31738;50.188;8.524;2023-11-19T09:00:37;9.52;;;2.80;;
46006;SDS011;31738;50.188;8.524;2023-11-19T09:03:02;12.50;;;2.92;;
46006;SDS011;31738;50.188;8.524;2023-11-19T09:05:28;12.63;;;2.72;;
46006;SDS011;31738;50.188;8.524;2023-11-19T09:07:53;13.85;;;2.75;;
46006;SDS011;31738;50.188;8.524;2023-11-19T09:10:19;17.58;;;3.45;;
46006;SDS011;31738;50.188;8.524;2023-11-19T09:12:45;17.67;;;3.97;;
46006;SDS011;31738;50.188;8.524;2023-11-19T09:15:10;14.02;;;2.95;;
46006;SDS011;31738;50.188;8.524;2023-11-19T09:17:36;12.23;;;3.22;;
46006;SDS011;31738;50.188;8.524;2023-11-19T09:20:01;17.67;;;3.03;;
46006;SDS011;31738;50.188;8.524;2023-11-19T09:22:27;13.10;;;3.17;;
46006;SDS011;31738;50.188;8.524;2023-11-19T09:24:52;26.83;;;4.03;;
46006;SDS011;31738;50.188;8.524;2023-11-19T09:27:18;15.07;;;3.25;;
46006;SDS011;31738;50.188;8.524;2023-11-19T09:29:43;17.38;;;3.47;;
46006;SDS011;31738;50.188;8.524;2023-11-19T09:32:13;16.38;;;3.72;;
46006;SDS011;31738;50.188;8.524;2023-11-19T09:34:38;24.42;;;3.67;;
46006;SDS011;31738;50.188;8.524;2023-11-19T09:37:04;26.45;;;3.25;;
46006;SDS011;31738;50.188;8.524;2023-11-19T09:39:29;18.67;;;3.20;;
46006;SDS011;31738;50.188;8.524;2023-11-19T09:41:55;25.55;;;3.83;;
46006;SDS011;31738;50.188;8.524;2023-11-19T09:44:20;19.50;;;3.22;;
46006;SDS011;31738;50.188;8.524;2023-11-19T09:46:46;18.02;;;3.25;;
46006;SDS011;31738;50.188;8.524;2023-11-19T09:49:13;24.33;;;3.60;;
46006;SDS011;31738;50.188;8.524;2023-11-19T09:51:40;15.55;;;2.70;;
46006;SDS011;31738;50.188;8.524;2023-11-19T09:54:06;20.30;;;3.25;;
46006;SDS011;31738;50.188;8.524;2023-11-19T09:56:38;18.63;;;2.42;;
46006;SDS011;31738;50.188;8.524;2023-11-19T09:59:04;14.88;;;2.70;;
46006;SDS011;31738;50.188;8.524;2023-11-19T10:01:30;15.52;;;2.90;;
46006;SDS011;31738;50.188;8.524;2023-11-19T10:03:57;8.73;;;1.92;;
46006;SDS011;31738;50.188;8.524;2023-11-19T10:06:22;8.13;;;1.83;;
46006;SDS011;31738;50.188;8.524;2023-11-19T10:08:52;5.78;;;1.42;;
46006;SDS011;31738;50.188;8.524;2023-11-19T10:11:18;14.27;;;1.73;;
46006;SDS011;31738;50.188;8.524;2023-11-19T10:13:43;9.88;;;1.75;;
46006;SDS011;31738;50.188;8.524;2023-11-19T10:16:12;11.50;;;1.38;;
46006;SDS011;31738;50.188;8.524;2023-11-19T10:18:44;10.75;;;1.80;;
46006;SDS011;31738;50.188;8.524;2023-11-19T10:21:16;8.57;;;1.65;;
46006;SDS011;31738;50.188;8.524;2023-11-19T10:23:55;4.75;;;1.55;;
46006;SDS011;31738;50.188;8.524;2023-11-19T10:26:23;9.65;;;1.38;;
46006;SDS011;31738;50.188;8.524;2023-11-19T10:28:49;10.80;;;2.05;;
46006;SDS011;31738;50.188;8.524;2023-11-19T10:31:15;5.50;;;1.33;;
46006;SDS011;31738;50.188;8.524;2023-11-19T10:33:42;8.63;;;1.50;;
46006;SDS011;31738;50.188;8.524;2023-11-19T10:36:10;12.27;;;1.77;;
46006;SDS011;31738;50.188;8.524;2023-11-19T10:38:40;7.15;;;1.73;;
46006;SDS011;31738;50.188;8.524;2023-11-19T10:41:06;6.60;;;1.65;;
46006;SDS011;31738;50.188;8.524;2023-11-19T10:43:42;13.50;;;1.67;;
46006;SDS011;31738;50.188;8.524;2023-11-19T10:46:10;17.13;;;1.85;;
46006;SDS011;31738;50.188;8.524;2023-11-19T10:48:37;9.25;;;2.13;;
46006;SDS011;31738;50.188;8.524;2023-11-19T10:51:04;7.45;;;1.17;;
46006;SDS011;31738;50.188;8.524;2023-11-19T10:53:36;9.93;;;1.48;;
46006;SDS011;31738;50.188;8.524;2023-11-19T10:56:06;8.45;;;1.67;;
46006;SDS011;31738;50.188;8.524;2023-11-19T10:58:36;8.27;;;1.52;;
46006;SDS011;31738;50.188;8.524;2023-11-19T11:01:09;8.20;;;1.50;;
46006;SDS011;31738;50.188;8.524;2023-11-19T11:03:39;8.35;;;1.45;;
46006;SDS011;31738;50.188;8.524;2023-11-19T11:06:05;13.15;;;2.28;;
46006;SDS011;31738;50.188;8.524;2023-11-19T11:08:31;6.90;;;1.95;;
46006;SDS011;31738;50.188;8.524;2023-11-19T11:11:01;9.23;;;1.58;;
46006;SDS011;31738;50.188;8.524;2023-11-19T11:13:27;5.68;;;1.45;;
46006;SDS011;31738;50.188;8.524;2023-11-19T11:15:56;12.27;;;1.80;;
46006;SDS011;31738;50.188;8.524;2023-11-19T11:18:25;9.55;;;1.85;;
46006;SDS011;31738;50.188;8.524;2023-11-19T11:20:52;11.93;;;1.98;;
46006;SDS011;31738;50.188;8.524;2023-11-19T11:29:11;8.82;;;1.70;;
46006;SDS011;31738;50.188;8.524;2023-11-19T11:37:46;9.95;;;1.75;;
46006;SDS011;31738;50.188;8.524;2023-11-19T11:40:15;11.73;;;1.75;;
46006;SDS011;31738;50.188;8.524;2023-11-19T11:42:41;16.73;;;2.88;;
46006;SDS011;31738;50.188;8.524;2023-11-19T11:45:08;11.30;;;1.48;;
46006;SDS011;31738;50.188;8.524;2023-11-19T11:55:29;19.45;;;2.95;;
46006;SDS011;31738;50.188;8.524;2023-11-19T11:57:59;12.93;;;2.10;;
46006;SDS011;31738;50.188;8.524;2023-11-19T12:02:54;10.43;;;2.45;;
46006;SDS011;31738;50.188;8.524;2023-11-19T12:05:21;10.32;;;1.92;;
46006;SDS011;31738;50.188;8.524;2023-11-19T12:07:57;15.65;;;2.35;;
46006;SDS011;31738;50.188;8.524;2023-11-19T12:10:28;14.02;;;2.03;;
46006;SDS011;31738;50.188;8.524;2023-11-19T12:13:04;13.48;;;2.42;;
46006;SDS011;31738;50.188;8.524;2023-11-19T12:15:32;14.27;;;1.73;;
46006;SDS011;31738;50.188;8.524;2023-11-19T12:17:58;13.35;;;2.00;;
46006;SDS011;31738;50.188;8.524;2023-11-19T12:20:25;8.70;;;1.63;;
46006;SDS011;31738;50.188;8.524;2023-11-19T12:22:51;8.82;;;1.67;;
46006;SDS011;31738;50.188;8.524;2023-11-19T12:25:18;12.00;;;1.77;;
46006;SDS011;31738;50.188;8.524;2023-11-19T12:27:46;9.85;;;1.85;;
46006;SDS011;31738;50.188;8.524;2023-11-19T12:30:16;8.88;;;1.48;;
46006;SDS011;31738;50.188;8.524;2023-11-19T12:32:51;7.85;;;1.35;;
46006;SDS011;31738;50.188;8.524;2023-11-19T12:35:18;13.77;;;1.90;;
46006;SDS011;31738;50.188;8.524;2023-11-19T12:37:48;13.13;;;2.28;;
46006;SDS011;31738;50.188;8.524;2023-11-19T12:40:16;12.70;;;2.10;;
46006;SDS011;31738;50.188;8.524;2023-11-19T12:42:48;12.18;;;1.60;;
46006;SDS011;31738;50.188;8.524;2023-11-19T12:45:14;7.43;;;1.60;;
46006;SDS011;31738;50.188;8.524;2023-11-19T12:47:41;7.90;;;1.73;;
46006;SDS011;31738;50.188;8.524;2023-11-19T12:50:07;12.18;;;1.55;;
46006;SDS011;31738;50.188;8.524;2023-11-19T12:52:37;10.00;;;1.45;;
46006;SDS011;31738;50.188;8.524;2023-11-19T12:55:04;12.32;;;1.70;;
46006;SDS011;31738;50.188;8.524;2023-11-19T13:00:04;7.35;;;1.45;;
46006;SDS011;31738;50.188;8.524;2023-11-19T13:02:46;9.38;;;1.50;;
46006;SDS011;31738;50.188;8.524;2023-11-19T13:05:29;8.82;;;1.30;;
46006;SDS011;31738;50.188;8.524;2023-11-19T13:10:49;6.68;;;1.23;;
46006;SDS011;31738;50.188;8.524;2023-11-19T13:13:16;10.90;;;1.23;;
46006;SDS011;31738;50.188;8.524;2023-11-19T13:15:42;5.15;;;1.10;;
46006;SDS011;31738;50.188;8.524;2023-11-19T13:18:10;7.95;;;1.30;;
46006;SDS011;31738;50.188;8.524;2023-11-19T13:20:35;10.85;;;1.45;;
46006;SDS011;31738;50.188;8.524;2023-11-19T13:23:02;7.80;;;1.25;;
46006;SDS011;31738;50.188;8.524;2023-11-19T13:25:28;8.45;;;1.35;;
46006;SDS011;31738;50.188;8.524;2023-11-19T13:27:55;10.82;;;1.45;;
46006;SDS011;31738;50.188;8.524;2023-11-19T13:30:21;9.25;;;1.45;;
46006;SDS011;31738;50.188;8.524;2023-11-19T13:32:48;9.73;;;1.55;;
46006;SDS011;31738;50.188;8.524;2023-11-19T13:35:13;8.45;;;1.55;;
46006;SDS011;31738;50.188;8.524;2023-11-19T13:37:39;10.35;;;1.50;;
46006;SDS011;31738;50.188;8.524;2023-11-19T13:40:08;11.65;;;1.20;;
46006;SDS011;31738;50.188;8.524;2023-11-19T13:42:38;6.40;;;1.25;;
46006;SDS011;31738;50.188;8.524;2023-11-19T13:45:15;8.43;;;1.13;;
46006;SDS011;31738;50.188;8.524;2023-11-19T13:47:43;13.52;;;1.60;;
46006;SDS011;31738;50.188;8.524;2023-11-19T13:50:15;16.75;;;1.42;;
46006;SDS011;31738;50.188;8.524;2023-11-19T13:52:45;9.80;;;1.48;;
46006;SDS011;31738;50.188;8.524;2023-11-19T13:55:12;8.95;;;1.45;;
46006;SDS011;31738;50.188;8.524;2023-11-19T13:57:39;9.45;;;1.10;;
46006;SDS011;31738;50.188;8.524;2023-11-19T14:00:07;6.35;;;1.45;;
46006;SDS011;31738;50.188;8.524;2023-11-19T14:02:41;8.40;;;1.17;;
46006;SDS011;31738;50.188;8.524;2023-11-19T14:05:08;7.45;;;1.05;;
46006;SDS011;31738;50.188;8.524;2023-11-19T14:07:34;7.35;;;1.40;;
46006;SDS011;31738;50.188;8.524;2023-11-19T14:10:00;12.18;;;1.70;;
46006;SDS011;31738;50.188;8.524;2023-11-19T14:12:25;7.35;;;1.30;;
46006;SDS011;31738;50.188;8.524;2023-11-19T14:14:51;6.95;;;1.15;;
46006;SDS011;31738;50.188;8.524;2023-11-19T14:17:16;12.00;;;1.48;;
46006;SDS011;31738;50.188;8.524;2023-11-19T14:19:42;11.57;;;1.40;;
46006;SDS011;31738;50.188;8.524;2023-11-19T14:22:08;7.32;;;1.58;;
46006;SDS011;31738;50.188;8.524;2023-11-19T14:24:34;5.78;;;1.25;;
46006;SDS011;31738;50.188;8.524;2023-11-19T14:27:00;10.20;;;1.35;;
46006;SDS011;31738;50.188;8.524;2023-11-19T14:29:26;11.95;;;1.38;;
46006;SDS011;31738;50.188;8.524;2023-11-19T14:31:53;8.50;;;1.33;;
46006;SDS011;31738;50.188;8.524;2023-11-19T14:34:19;10.38;;;1.42;;
46006;SDS011;31738;50.188;8.524;2023-11-19T14:36:45;10.32;;;1.42;;
46006;SDS011;31738;50.188;8.524;2023-11-19T14:39:11;11.63;;;1.30;;
46006;SDS011;31738;50.188;8.524;2023-11-19T14:41:36;7.43;;;1.38;;
46006;SDS011;31738;50.188;8.524;2023-11-19T14:44:02;7.47;;;1.10;;
46006;SDS011;31738;50.188;8.524;2023-11-19T14:46:28;9.88;;;1.52;;
46006;SDS011;31738;50.188;8.524;2023-11-19T14:48:54;10.02;;;1.55;;
46006;SDS011;31738;50.188;8.524;2023-11-19T14:51:19;9.52;;;1.00;;
46006;SDS011;31738;50.188;8.524;2023-11-19T14:53:46;8.20;;;1.00;;
46006;SDS011;31738;50.188;8.524;2023-11-19T14:56:11;5.20;;;1.15;;
46006;SDS011;31738;50.188;8.524;2023-11-19T14:58:41;5.82;;;1.13;;
46006;SDS011;31738;50.188;8.524;2023-11-19T15:01:10;11.95;;;1.42;;
46006;SDS011;31738;50.188;8.524;2023-11-19T15:03:36;13.82;;;1.80;;
46006;SDS011;31738;50.188;8.524;2023-11-19T15:06:02;9.68;;;1.52;;